Cambridge, Vermont
Current Conditions -  °F | °C
As of 4:54 AM on Thursday 23 Oct 2014 (Local Time) from KMVL Reporting Station
Overcast Overcast  
Wind Chill: 41°   Ceiling: 2300
Heat Index: 46°   Visibility: 10mi
Dew Point: 37°   Wind: 10mph
Humidity: 71%   Direction: 360°N
Pressure: 30.01"   Gusts: NA
Location:  44.64°N, 72.88°W
Report Text: KMVL 230854Z AUTO 36009KT 10SM OVC023 08/03 A3001 RMK AO2 SLP167 T00780028 56017
Loading
Personal Weather Stations






























Interactive Weather Map
Tropical Storm Tracking
New forecast layout! Learn more

10-Day Weather Forecast

Advertisements
Track Severe Weather on mobile